Time;durP1;ratioP1;P1;durP2;ratioP2;P2;SDS_P1;SDS_P2;PMS_P1;PMS_P2;Temp;Humidity;BMP_temperature;BMP_pressure;BME280_temperature;BME280_humidity;BME280_pressure;Samples;Min_cycle;Max_cycle;Signal;HPM_P1;HPM_P2
2021/12/29 00:02:15;;;;;;;24.08;11.40;;;;;;;;;;5063056;28;20031;-71
2021/12/29 00:04:41;;;;;;;25.48;11.15;;;;;;;;;;5050831;28;20021;-71
2021/12/29 00:07:10;;;;;;;24.75;10.63;;;;;;;;;;5065403;28;20112;-71
2021/12/29 00:09:42;;;;;;;24.95;10.25;;;7.90;99.90;;;;;;5058379;28;20024;-74
2021/12/29 00:12:09;;;;;;;24.33;10.77;;;8.30;99.90;;;;;;5052505;28;20046;-69
2021/12/29 00:14:36;;;;;;;21.70;9.73;;;8.30;99.90;;;;;;5059938;28;20047;-70
2021/12/29 00:17:03;;;;;;;23.85;10.80;;;8.30;99.90;;;;;;5052886;28;20021;-70
2021/12/29 00:19:29;;;;;;;23.15;10.15;;;8.40;99.90;;;;;;5051167;28;20025;-71
2021/12/29 00:21:54;;;;;;;19.65;8.57;;;8.40;99.90;;;;;;5050480;28;20501;-71
2021/12/29 00:24:20;;;;;;;21.15;8.90;;;;;;;;;;5053964;28;20065;-71
2021/12/29 00:26:46;;;;;;;22.83;9.27;;;8.40;99.90;;;;;;5038743;28;20032;-71
2021/12/29 00:29:12;;;;;;;18.90;7.50;;;8.40;99.90;;;;;;5052060;28;20021;-71
2021/12/29 00:31:37;;;;;;;21.83;9.88;;;8.40;99.90;;;;;;5033489;28;20124;-71
2021/12/29 00:34:03;;;;;;;20.92;7.65;;;8.40;99.90;;;;;;5033969;28;20703;-71
2021/12/29 00:36:29;;;;;;;20.00;8.90;;;8.50;99.90;;;;;;5050516;28;20025;-72
2021/12/29 00:38:54;;;;;;;18.35;7.05;;;8.40;99.90;;;;;;5034180;28;20025;-71
2021/12/29 00:41:20;;;;;;;17.08;6.80;;;8.50;99.90;;;;;;5034263;28;20116;-71
2021/12/29 00:43:46;;;;;;;18.88;7.30;;;8.50;99.90;;;;;;5053538;28;20431;-72
2021/12/29 00:46:14;;;;;;;17.88;7.40;;;8.50;99.90;;;;;;5053506;28;20048;-72
2021/12/29 00:48:43;;;;;;;18.23;8.30;;;8.50;99.90;;;;;;5053065;28;20021;-72
2021/12/29 00:51:09;;;;;;;18.05;7.82;;;8.50;99.90;;;;;;5035518;28;20032;-72
2021/12/29 00:53:35;;;;;;;18.92;7.35;;;8.50;99.90;;;;;;5035040;28;20555;-72
2021/12/29 00:56:03;;;;;;;17.40;7.60;;;8.50;99.90;;;;;;5052763;28;20155;-71
2021/12/29 00:58:29;;;;;;;17.98;8.02;;;8.50;99.90;;;;;;5034676;28;20045;-73
2021/12/29 01:00:55;;;;;;;17.23;7.32;;;8.50;99.90;;;;;;5034345;28;20405;-72
2021/12/29 01:03:21;;;;;;;19.75;8.38;;;8.50;99.90;;;;;;5051724;28;20369;-72
2021/12/29 01:05:47;;;;;;;19.00;9.75;;;8.50;99.90;;;;;;5034583;28;20028;-72
2021/12/29 01:08:13;;;;;;;18.58;8.10;;;8.50;99.90;;;;;;5052502;28;20032;-72
2021/12/29 01:10:41;;;;;;;18.33;8.45;;;8.50;99.90;;;;;;5052872;28;20074;-72
2021/12/29 01:13:14;;;;;;;18.25;8.13;;;8.50;99.90;;;;;;5034702;28;20036;-72
2021/12/29 01:16:09;;;;;;;17.02;7.75;;;8.50;99.90;;;;;;5035455;28;20025;-71
2021/12/29 01:18:39;;;;;;;19.77;8.13;;;8.50;99.90;;;;;;5053289;28;20473;-72
2021/12/29 01:21:05;;;;;;;16.90;7.45;;;8.50;99.90;;;;;;5052956;28;20028;-72
2021/12/29 01:23:31;;;;;;;17.35;7.57;;;8.60;99.90;;;;;;5052206;28;20021;-72
2021/12/29 01:25:56;;;;;;;17.88;8.32;;;8.50;99.90;;;;;;5052701;28;20362;-72
2021/12/29 01:28:22;;;;;;;15.65;7.30;;;8.50;99.90;;;;;;5052822;28;20497;-72
2021/12/29 01:30:48;;;;;;;19.52;7.28;;;8.60;99.90;;;;;;5052907;28;20469;-72
2021/12/29 01:33:16;;;;;;;16.25;7.10;;;8.60;99.90;;;;;;5052019;28;20040;-73
2021/12/29 01:35:42;;;;;;;;;;;8.60;99.90;;;;;;5035385;28;20028;-72
2021/12/29 01:38:08;;;;;;;17.15;7.18;;;8.60;99.90;;;;;;5034931;28;19904;-70
2021/12/29 01:40:41;;;;;;;17.40;7.25;;;8.60;99.90;;;;;;5052697;28;20100;-71
2021/12/29 01:43:09;;;;;;;16.58;7.22;;;8.60;99.90;;;;;;5034087;28;20074;-73
2021/12/29 01:45:37;;;;;;;16.60;6.90;;;8.60;99.90;;;;;;5052518;28;20029;-73
2021/12/29 01:48:05;;;;;;;16.67;7.00;;;8.60;99.90;;;;;;5052641;28;20060;-72
2021/12/29 01:50:31;;;;;;;17.77;7.35;;;8.70;99.90;;;;;;5052588;28;20112;-72
2021/12/29 01:53:02;;;;;;;16.90;6.57;;;8.70;99.90;;;;;;5034060;28;20037;-72
2021/12/29 01:55:31;;;;;;;16.80;6.60;;;8.70;99.90;;;;;;5052515;28;20119;-74
2021/12/29 01:57:57;;;;;;;16.00;6.30;;;8.70;99.90;;;;;;5034675;28;20032;-74
2021/12/29 02:00:26;;;;;;;17.10;6.57;;;8.70;99.90;;;;;;5052447;28;20056;-72
2021/12/29 02:02:52;;;;;;;16.88;6.70;;;8.70;99.90;;;;;;5051884;28;20068;-72
2021/12/29 02:05:18;;;;;;;16.48;6.22;;;8.70;99.90;;;;;;5052377;28;20028;-73
2021/12/29 02:07:44;;;;;;;16.98;7.10;;;8.70;99.90;;;;;;5052413;28;20586;-73
2021/12/29 02:10:13;;;;;;;16.35;6.75;;;8.70;99.90;;;;;;5034599;28;20052;-72
2021/12/29 02:12:39;;;;;;;16.30;7.00;;;8.60;99.90;;;;;;5051769;28;20654;-73
2021/12/29 02:15:05;;;;;;;16.70;7.22;;;8.60;99.90;;;;;;5051991;28;20020;-72
2021/12/29 02:17:32;;;;;;;17.20;7.00;;;8.60;99.90;;;;;;5052228;28;20504;-72
2021/12/29 02:19:59;;;;;;;17.67;7.95;;;8.60;99.90;;;;;;5051999;28;20489;-72
2021/12/29 02:24:55;;;;;;;16.38;7.68;;;8.60;99.90;;;;;;5052066;28;20389;-73
2021/12/29 02:27:21;;;;;;;17.13;8.05;;;8.60;99.90;;;;;;5052088;28;20026;-72
2021/12/29 02:29:47;;;;;;;17.33;8.48;;;8.60;99.90;;;;;;5034344;28;20056;-72
2021/12/29 02:32:14;;;;;;;18.10;9.00;;;8.60;99.90;;;;;;5054933;28;20085;-72
2021/12/29 02:34:40;;;;;;;17.98;8.68;;;8.60;99.90;;;;;;5038379;28;20021;-72
2021/12/29 02:37:07;;;;;;;17.92;8.77;;;8.60;99.90;;;;;;5058821;28;20155;-73
2021/12/29 02:39:36;;;;;;;18.20;9.23;;;8.60;99.90;;;;;;5057482;28;20025;-73
2021/12/29 02:42:05;;;;;;;17.95;9.23;;;8.60;99.90;;;;;;5051643;28;20074;-72
2021/12/29 02:44:38;;;;;;;18.10;9.90;;;8.50;99.90;;;;;;5033837;28;20384;-72
2021/12/29 02:47:05;;;;;;;19.25;10.57;;;8.60;99.90;;;;;;5033861;28;20098;-72
2021/12/29 02:49:31;;;;;;;19.05;11.38;;;8.60;99.90;;;;;;5052192;28;20027;-73
2021/12/29 02:51:56;;;;;;;17.63;10.45;;;8.60;99.90;;;;;;5050864;28;20108;-73
2021/12/29 02:54:25;;;;;;;17.80;10.63;;;8.60;99.90;;;;;;5051469;28;20029;-73
2021/12/29 02:56:54;;;;;;;17.33;11.38;;;8.50;99.90;;;;;;5051574;28;20393;-72
2021/12/29 02:59:21;;;;;;;16.60;9.98;;;8.50;99.90;;;;;;5050470;28;20029;-73
2021/12/29 03:01:47;;;;;;;18.88;12.77;;;8.50;99.90;;;;;;5050841;28;20377;-71
2021/12/29 03:04:14;;;;;;;18.05;11.90;;;8.50;99.90;;;;;;5050154;28;20032;-73
2021/12/29 03:06:40;;;;;;;19.38;11.45;;;8.50;99.90;;;;;;5051425;28;20572;-73
2021/12/29 03:09:07;;;;;;;17.50;11.07;;;8.50;99.90;;;;;;5050225;28;20120;-73
2021/12/29 03:11:33;;;;;;;19.67;13.10;;;8.50;99.90;;;;;;5052774;28;20029;-71
2021/12/29 03:13:59;;;;;;;19.67;13.70;;;8.50;99.90;;;;;;5054266;28;20086;-72
2021/12/29 03:16:25;;;;;;;21.33;13.82;;;8.50;99.90;;;;;;5055621;28;20013;-72
2021/12/29 03:18:51;;;;;;;19.15;13.10;;;8.50;99.90;;;;;;5050942;28;20355;-73
2021/12/29 03:21:16;;;;;;;20.50;17.42;;;8.50;99.90;;;;;;5054275;28;20013;-73
2021/12/29 03:23:42;;;;;;;20.63;16.70;;;8.50;99.90;;;;;;5054924;28;20048;-72
2021/12/29 03:26:08;;;;;;;21.27;16.85;;;8.50;99.90;;;;;;5054158;28;20064;-73
2021/12/29 03:28:37;;;;;;;24.75;18.73;;;8.50;99.90;;;;;;5055766;28;20025;-72
2021/12/29 03:31:03;;;;;;;20.60;16.25;;;8.50;99.90;;;;;;5055494;28;20032;-73
2021/12/29 03:33:29;;;;;;;20.33;16.88;;;8.50;99.90;;;;;;5054471;28;20025;-73
2021/12/29 03:36:01;;;;;;;21.95;18.30;;;8.50;99.90;;;;;;5055072;28;20052;-72
2021/12/29 03:38:28;;;;;;;21.17;17.98;;;8.50;99.90;;;;;;5053869;28;20020;-73
2021/12/29 03:40:55;;;;;;;20.20;17.08;;;8.60;99.90;;;;;;5054847;28;20056;-73
2021/12/29 03:43:21;;;;;;;20.90;16.92;;;8.50;99.90;;;;;;5054278;28;20025;-72
2021/12/29 03:45:50;;;;;;;23.27;18.92;;;8.60;99.90;;;;;;5053910;28;20440;-73
2021/12/29 03:48:16;;;;;;;21.75;18.67;;;8.50;99.90;;;;;;5055053;28;20031;-73
2021/12/29 03:50:42;;;;;;;23.52;20.08;;;8.50;99.90;;;;;;5054097;28;20108;-73
2021/12/29 03:53:09;;;;;;;23.05;18.50;;;8.50;99.90;;;;;;5053217;28;20068;-73
2021/12/29 03:55:35;;;;;;;21.63;19.10;;;8.50;99.90;;;;;;5054775;28;20477;-73
2021/12/29 03:58:01;;;;;;;23.73;18.65;;;8.50;99.90;;;;;;5053392;28;20025;-73
2021/12/29 04:00:27;;;;;;;24.00;20.27;;;8.50;99.90;;;;;;5053663;28;20205;-73
2021/12/29 04:02:53;;;;;;;24.83;21.05;;;8.50;99.90;;;;;;5053942;28;20090;-73
2021/12/29 04:05:22;;;;;;;22.98;20.50;;;8.50;99.90;;;;;;5054734;28;20071;-73
2021/12/29 04:07:48;;;;;;;24.13;20.30;;;8.50;99.90;;;;;;5054656;28;20033;-74
2021/12/29 04:10:14;;;;;;;22.90;20.60;;;8.50;99.90;;;;;;5053444;28;20428;-73
2021/12/29 04:12:41;;;;;;;24.27;21.23;;;8.40;99.90;;;;;;5052587;28;20032;-73
2021/12/29 04:15:09;;;;;;;22.02;19.73;;;8.50;99.90;;;;;;5054530;28;20486;-72
2021/12/29 04:17:38;;;;;;;24.30;19.87;;;8.50;99.90;;;;;;5036795;28;20396;-73
2021/12/29 04:22:49;;;;;;;23.77;19.27;;;8.40;99.90;;;;;;5053909;28;20511;-73
2021/12/29 04:25:15;;;;;;;25.17;19.33;;;8.40;99.90;;;;;;5052596;28;20037;-73
2021/12/29 04:27:41;;;;;;;24.88;19.58;;;8.40;99.90;;;;;;5054452;28;20481;-73
2021/12/29 04:30:07;;;;;;;26.65;18.70;;;8.40;99.90;;;;;;5054170;28;20021;-72
2021/12/29 04:32:32;;;;;;;26.25;17.70;;;8.40;99.90;;;;;;5036017;28;20017;-73
2021/12/29 04:34:58;;;;;;;27.92;18.38;;;8.40;99.90;;;;;;5052575;28;20025;-73
2021/12/29 04:37:24;;;;;;;29.02;19.13;;;8.40;99.90;;;;;;5054066;28;20021;-73
2021/12/29 04:39:49;;;;;;;28.65;18.80;;;8.30;99.90;;;;;;5036076;28;20554;-73
2021/12/29 04:42:15;;;;;;;32.53;18.92;;;8.40;99.90;;;;;;5052111;28;20052;-73
2021/12/29 04:44:40;;;;;;;29.85;18.15;;;8.40;99.90;;;;;;5053722;28;20068;-73
2021/12/29 04:47:07;;;;;;;28.02;17.83;;;8.40;99.90;;;;;;5053950;28;20063;-73
2021/12/29 04:49:40;;;;;;;27.17;16.77;;;8.40;99.90;;;;;;5052399;28;20032;-73
2021/12/29 04:52:07;;;;;;;27.88;17.27;;;8.40;99.90;;;;;;5051853;28;20028;-73
2021/12/29 04:54:34;;;;;;;24.50;16.05;;;8.30;99.90;;;;;;5053562;28;20413;-73
2021/12/29 04:57:00;;;;;;;28.33;15.93;;;8.30;99.90;;;;;;5053803;28;20190;-72
2021/12/29 04:59:26;;;;;;;27.40;16.92;;;8.30;99.90;;;;;;5052338;28;20477;-73
2021/12/29 05:01:53;;;;;;;25.02;15.95;;;8.30;99.90;;;;;;5035185;28;20470;-73
2021/12/29 05:04:30;;;;;;;26.23;17.20;;;8.30;99.90;;;;;;5053628;28;20021;-73
2021/12/29 05:09:40;;;;;;;24.85;14.60;;;8.30;99.90;;;;;;5053892;28;20079;-76
2021/12/29 05:12:07;;;;;;;22.83;14.45;;;8.30;99.90;;;;;;5051297;28;20025;-72
2021/12/29 05:14:33;;;;;;;24.23;15.02;;;8.30;99.90;;;;;;5053333;28;20031;-73
2021/12/29 05:16:59;;;;;;;25.25;14.18;;;8.30;99.90;;;;;;5052168;28;20117;-72
2021/12/29 05:19:25;;;;;;;24.65;13.63;;;8.30;99.90;;;;;;5053368;28;20092;-72
2021/12/29 05:21:50;;;;;;;27.02;15.43;;;8.30;99.90;;;;;;5051490;28;20028;-72
2021/12/29 05:24:16;;;;;;;23.80;14.75;;;8.30;99.90;;;;;;5035660;28;20071;-73
2021/12/29 05:26:42;;;;;;;23.67;13.05;;;8.30;99.90;;;;;;5053132;28;20032;-75
2021/12/29 05:29:07;;;;;;;22.88;13.18;;;8.30;99.90;;;;;;5053011;28;20024;-73
2021/12/29 05:31:33;;;;;;;22.45;13.38;;;8.30;99.90;;;;;;5052719;28;20029;-71
2021/12/29 05:33:59;;;;;;;22.73;12.57;;;8.30;99.90;;;;;;5050919;28;20029;-73
2021/12/29 05:36:27;;;;;;;21.90;12.95;;;8.30;99.90;;;;;;5051864;28;20078;-73
2021/12/29 05:38:54;;;;;;;;;;;8.30;99.90;;;;;;5052002;28;20025;-72
2021/12/29 05:41:21;;;;;;;21.85;12.10;;;8.30;99.90;;;;;;5035179;28;19905;-72
2021/12/29 05:43:46;;;;;;;23.73;12.88;;;8.30;99.90;;;;;;5050909;28;20029;-72
2021/12/29 05:46:12;;;;;;;24.90;12.35;;;8.30;99.90;;;;;;5051391;28;20112;-72
2021/12/29 05:48:38;;;;;;;22.10;12.50;;;8.30;99.90;;;;;;5034901;28;20025;-72
2021/12/29 05:51:03;;;;;;;23.27;11.95;;;8.30;99.90;;;;;;5052620;28;20036;-72
2021/12/29 05:53:29;;;;;;;24.10;13.40;;;8.20;99.90;;;;;;5051698;28;20374;-73
2021/12/29 05:55:55;;;;;;;25.42;14.50;;;8.20;99.90;;;;;;5051259;28;20393;-70
2021/12/29 05:58:20;;;;;;;23.10;12.52;;;8.20;99.90;;;;;;5051131;28;20112;-72
2021/12/29 06:00:46;;;;;;;25.02;12.52;;;8.20;99.90;;;;;;5051217;28;20485;-72
2021/12/29 06:03:12;;;;;;;21.83;12.07;;;8.20;99.90;;;;;;5050587;28;20489;-72
2021/12/29 06:05:38;;;;;;;21.75;11.88;;;8.20;99.90;;;;;;5052488;28;20055;-72
2021/12/29 06:08:05;;;;;;;21.52;11.80;;;8.20;99.90;;;;;;5051993;28;20021;-72
2021/12/29 06:10:31;;;;;;;23.13;13.35;;;8.20;99.90;;;;;;5052153;28;20157;-72
2021/12/29 06:12:57;;;;;;;22.02;13.00;;;8.20;99.90;;;;;;5051373;28;20025;-72
2021/12/29 06:15:22;;;;;;;21.52;12.57;;;8.20;99.90;;;;;;5050675;28;20056;-71
2021/12/29 06:17:48;;;;;;;22.05;12.20;;;8.20;99.90;;;;;;5051960;28;20040;-72
2021/12/29 06:20:14;;;;;;;20.02;12.57;;;8.20;99.90;;;;;;5052111;28;20017;-72
2021/12/29 06:22:41;;;;;;;23.38;13.68;;;8.20;99.90;;;;;;5051379;28;20078;-71
2021/12/29 06:25:09;;;;;;;22.02;11.77;;;8.20;99.90;;;;;;5051826;28;20033;-72
2021/12/29 06:27:35;;;;;;;21.33;12.27;;;8.20;99.90;;;;;;5050678;28;20099;-73
2021/12/29 06:30:01;;;;;;;22.48;12.25;;;8.20;99.90;;;;;;5050680;28;20041;-72
2021/12/29 06:32:26;;;;;;;21.38;13.02;;;8.20;99.90;;;;;;5051218;28;20013;-72
2021/12/29 06:34:52;;;;;;;20.02;12.98;;;8.20;99.90;;;;;;5050613;28;20032;-72
2021/12/29 06:37:18;;;;;;;21.10;12.98;;;8.20;99.90;;;;;;5049419;28;20500;-73
2021/12/29 06:39:45;;;;;;;20.42;11.73;;;8.20;99.90;;;;;;5051916;28;20039;-72
2021/12/29 06:42:12;;;;;;;18.63;11.15;;;8.20;99.90;;;;;;5051324;28;20100;-71
2021/12/29 06:44:39;;;;;;;19.40;13.40;;;8.10;99.90;;;;;;5096982;23;20055;-68
2021/12/29 06:47:05;;;;;;;19.77;11.50;;;8.20;99.90;;;;;;5073420;28;20081;-67
2021/12/29 06:49:31;;;;;;;20.90;12.77;;;8.20;99.90;;;;;;5074240;28;20071;-67
2021/12/29 06:51:56;;;;;;;19.88;12.65;;;8.20;99.90;;;;;;5083336;28;20040;-66
2021/12/29 06:54:22;;;;;;;23.27;13.57;;;8.20;99.90;;;;;;5070487;28;20036;-67
2021/12/29 06:56:48;;;;;;;22.15;13.55;;;8.20;99.90;;;;;;5072661;28;20542;-66
2021/12/29 06:59:14;;;;;;;25.65;14.00;;;8.20;99.90;;;;;;5072015;28;20025;-68
2021/12/29 07:01:39;;;;;;;22.35;13.75;;;8.20;99.90;;;;;;5086887;28;20016;-68
2021/12/29 07:04:06;;;;;;;25.13;14.05;;;8.20;99.90;;;;;;5073924;28;20024;-67
2021/12/29 07:06:31;;;;;;;26.23;13.55;;;8.20;99.90;;;;;;5073995;28;20020;-68
2021/12/29 07:08:57;;;;;;;26.92;15.00;;;8.20;99.90;;;;;;5070311;28;20082;-67
2021/12/29 07:11:23;;;;;;;29.13;16.08;;;8.20;99.90;;;;;;5071159;28;20025;-67
2021/12/29 07:13:49;;;;;;;26.35;16.10;;;8.20;99.90;;;;;;5069930;28;20025;-68
2021/12/29 07:16:15;;;;;;;30.42;16.95;;;8.20;99.90;;;;;;5071476;28;20115;-68
2021/12/29 07:18:41;;;;;;;31.50;16.83;;;8.30;99.90;;;;;;5072212;28;20119;-67
2021/12/29 07:21:07;;;;;;;32.10;18.38;;;8.30;99.90;;;;;;5072079;28;20469;-68
2021/12/29 07:23:32;;;;;;;32.05;17.50;;;8.30;99.90;;;;;;5070101;28;20035;-67
2021/12/29 07:25:58;;;;;;;33.88;18.67;;;8.30;99.90;;;;;;5076761;28;20028;-67
2021/12/29 07:28:23;;;;;;;32.22;17.83;;;8.30;99.90;;;;;;5073961;28;20056;-67
2021/12/29 07:30:49;;;;;;;30.70;17.60;;;8.30;99.90;;;;;;5074363;28;20024;-68
2021/12/29 07:33:15;;;;;;;31.70;17.98;;;8.30;99.90;;;;;;5073445;28;20083;-68
2021/12/29 07:35:41;;;;;;;30.20;16.95;;;8.30;99.90;;;;;;5074630;28;20081;-67
2021/12/29 07:38:06;;;;;;;31.42;17.20;;;8.30;99.90;;;;;;5092103;28;20491;-68
2021/12/29 07:40:34;;;;;;;36.30;20.95;;;8.30;99.90;;;;;;5073790;28;20387;-68
2021/12/29 07:43:01;;;;;;;34.90;19.30;;;8.40;99.90;;;;;;5091323;28;20024;-68
2021/12/29 07:45:27;;;;;;;35.08;18.00;;;8.40;99.90;;;;;;5073629;28;20032;-70
2021/12/29 07:47:53;;;;;;;29.00;17.65;;;8.40;99.90;;;;;;5091724;28;20047;-70
2021/12/29 07:50:20;;;;;;;29.10;17.77;;;8.40;99.90;;;;;;5073699;28;20035;-67
2021/12/29 07:52:48;;;;;;;31.35;18.92;;;8.40;99.90;;;;;;5072328;28;20016;-69
2021/12/29 07:55:15;;;;;;;33.85;19.33;;;8.40;99.90;;;;;;5091930;28;20027;-67
2021/12/29 07:57:41;;;;;;;33.70;19.27;;;8.40;99.90;;;;;;5075813;28;20035;-68
2021/12/29 08:00:08;;;;;;;34.50;20.27;;;8.40;99.90;;;;;;5077660;28;20039;-68
2021/12/29 08:02:35;;;;;;;32.50;19.45;;;8.40;99.90;;;;;;5095626;28;20039;-68
2021/12/29 08:05:01;;;;;;;41.33;19.67;;;8.40;99.90;;;;;;5078103;28;20020;-69
2021/12/29 08:07:26;;;;;;;37.17;20.58;;;8.40;99.90;;;;;;5077323;28;20480;-68
2021/12/29 08:09:53;;;;;;;37.70;20.50;;;8.40;99.90;;;;;;5095368;28;20042;-67
2021/12/29 08:12:19;;;;;;;40.97;19.98;;;8.40;99.90;;;;;;5076659;28;20051;-68
2021/12/29 08:14:49;;;;;;;37.95;20.92;;;8.40;99.90;;;;;;5076890;28;20663;-67
2021/12/29 08:17:15;;;;;;;32.25;19.80;;;8.50;99.90;;;;;;5094923;28;20667;-67
2021/12/29 08:19:41;;;;;;;31.70;18.60;;;8.50;99.90;;;;;;5095014;28;20095;-68
2021/12/29 08:22:06;;;;;;;29.85;17.38;;;8.50;99.90;;;;;;5075835;28;20381;-67
2021/12/29 08:24:32;;;;;;;33.53;20.17;;;8.50;99.90;;;;;;5077118;28;20028;-68
2021/12/29 08:26:57;;;;;;;33.75;19.33;;;8.50;99.90;;;;;;5070096;28;20029;-67
2021/12/29 08:29:23;;;;;;;31.50;18.65;;;8.50;99.90;;;;;;5074433;28;20024;-68
2021/12/29 08:31:49;;;;;;;38.00;19.15;;;8.50;99.90;;;;;;5055771;28;20021;-67
2021/12/29 08:34:15;;;;;;;33.75;19.20;;;8.50;99.90;;;;;;5074340;28;20155;-67
2021/12/29 08:36:41;;;;;;;30.77;18.05;;;8.50;99.90;;;;;;5056654;28;20020;-67
2021/12/29 08:39:07;;;;;;;37.08;20.15;;;8.50;99.90;;;;;;5056505;28;20025;-68
2021/12/29 08:41:33;;;;;;;36.58;19.20;;;8.50;99.90;;;;;;5074021;28;20030;-67
2021/12/29 08:43:58;;;;;;;33.40;20.40;;;8.60;99.90;;;;;;5073277;28;20028;-68
2021/12/29 08:46:24;;;;;;;34.50;19.48;;;8.50;99.90;;;;;;5056184;28;20132;-67
2021/12/29 08:48:50;;;;;;;32.53;19.90;;;8.60;99.90;;;;;;5056105;28;20107;-67
2021/12/29 08:51:17;;;;;;;30.45;19.60;;;8.60;99.90;;;;;;5056060;28;20480;-68
2021/12/29 08:53:43;;;;;;;37.35;18.75;;;8.60;99.90;;;;;;5073826;28;20034;-69
2021/12/29 08:56:09;;;;;;;29.98;20.00;;;8.60;99.90;;;;;;5059493;28;20028;-68
2021/12/29 08:58:35;;;;;;;32.10;19.95;;;8.70;99.90;;;;;;5054693;28;20108;-68
2021/12/29 09:01:01;;;;;;;29.35;18.67;;;8.70;99.90;;;;;;5055964;28;20056;-67
2021/12/29 09:03:28;;;;;;;28.23;17.08;;;8.70;99.90;;;;;;5073320;28;20021;-69
2021/12/29 09:05:54;;;;;;;28.63;18.73;;;8.60;99.90;;;;;;5073751;28;20028;-66
2021/12/29 09:08:19;;;;;;;29.90;18.70;;;8.60;99.90;;;;;;5072937;28;20398;-66
2021/12/29 09:10:45;;;;;;;34.85;19.88;;;8.60;99.90;;;;;;5073278;28;20029;-66
2021/12/29 09:13:12;;;;;;;28.73;18.58;;;8.60;99.90;;;;;;5054486;28;20374;-66
2021/12/29 09:15:38;;;;;;;29.80;18.38;;;8.60;99.90;;;;;;5055163;28;20025;-66
2021/12/29 09:18:04;;;;;;;30.20;18.73;;;8.60;99.90;;;;;;5074518;28;20020;-69
2021/12/29 09:20:32;;;;;;;29.10;17.80;;;8.70;99.90;;;;;;5074275;28;20024;-71
2021/12/29 09:23:04;;;;;;;28.55;17.35;;;8.70;99.90;;;;;;5055226;28;20032;-70
2021/12/29 09:25:31;;;;;;;29.67;18.38;;;8.60;99.90;;;;;;5073524;28;20116;-71
2021/12/29 09:27:57;;;;;;;29.42;18.40;;;8.70;99.90;;;;;;5073686;28;20056;-71
2021/12/29 09:30:26;;;;;;;27.33;17.38;;;8.70;99.90;;;;;;5073536;28;20553;-71
2021/12/29 09:32:52;;;;;;;31.33;18.52;;;8.80;99.90;;;;;;5055002;28;20097;-70
2021/12/29 09:35:20;;;;;;;26.48;17.05;;;8.70;99.90;;;;;;5055589;28;20020;-70
2021/12/29 09:37:46;;;;;;;32.03;17.58;;;8.70;99.90;;;;;;5055599;28;20016;-70
2021/12/29 09:40:13;;;;;;;31.83;18.98;;;8.70;99.90;;;;;;5055164;28;20025;-70
2021/12/29 09:42:39;;;;;;;29.63;17.17;;;8.80;99.90;;;;;;5055103;28;20024;-71
2021/12/29 09:45:07;;;;;;;26.08;16.38;;;8.80;99.90;;;;;;5055114;28;20039;-71
2021/12/29 09:47:33;;;;;;;30.33;18.20;;;8.80;99.90;;;;;;5073618;28;20072;-71
2021/12/29 09:50:01;;;;;;;25.83;16.15;;;8.80;99.90;;;;;;5083425;28;20032;-71
2021/12/29 09:52:29;;;;;;;28.30;17.13;;;8.80;99.90;;;;;;5073257;28;20028;-71
2021/12/29 09:54:56;;;;;;;27.45;16.30;;;8.80;99.90;;;;;;5070342;28;20270;-71
2021/12/29 09:57:22;;;;;;;27.35;17.23;;;8.80;99.90;;;;;;5068406;28;20035;-70
2021/12/29 09:59:48;;;;;;;26.73;16.52;;;8.80;99.90;;;;;;5075030;28;20610;-71
2021/12/29 10:02:14;;;;;;;24.88;16.15;;;8.90;99.90;;;;;;5074216;28;20062;-71
2021/12/29 10:04:39;;;;;;;27.88;17.20;;;8.80;99.90;;;;;;5092720;28;20105;-69
2021/12/29 10:07:17;;;;;;;25.67;16.90;;;8.80;99.90;;;;;;5092646;28;20027;-72
2021/12/29 10:09:43;;;;;;;27.35;17.30;;;8.80;99.90;;;;;;5074973;28;20028;-71
2021/12/29 10:12:17;;;;;;;27.30;17.25;;;8.80;99.90;;;;;;5073553;28;20031;-71
2021/12/29 10:14:57;;;;;;;30.52;18.42;;;8.80;99.90;;;;;;5092204;28;20017;-70
2021/12/29 10:17:28;;;;;;;24.10;17.08;;;8.80;99.90;;;;;;5075071;28;20028;-71
2021/12/29 10:20:05;;;;;;;25.40;17.15;;;8.70;99.90;;;;;;5074802;28;20027;-71
2021/12/29 10:22:31;;;;;;;26.40;17.65;;;8.80;99.90;;;;;;5083100;28;20035;-70
2021/12/29 10:25:17;;;;;;;27.67;16.67;;;8.80;99.90;;;;;;5082933;28;20024;-71
2021/12/29 10:27:43;;;;;;;28.95;18.50;;;8.80;99.90;;;;;;5053877;28;20081;-70
2021/12/29 10:30:18;;;;;;;25.75;16.65;;;8.80;99.90;;;;;;5054109;28;20119;-67
2021/12/29 10:32:44;;;;;;;29.10;18.75;;;8.90;99.90;;;;;;5070964;28;20081;-67
2021/12/29 10:35:20;;;;;;;27.02;15.65;;;8.80;99.90;;;;;;5071840;28;20021;-67
2021/12/29 10:37:45;;;;;;;26.15;16.60;;;8.90;99.90;;;;;;5053963;28;20361;-68
2021/12/29 10:40:15;;;;;;;26.85;16.38;;;8.90;99.90;;;;;;5071805;28;20027;-67
2021/12/29 10:42:53;;;;;;;26.77;18.63;;;8.90;99.90;;;;;;5070479;28;20032;-68
2021/12/29 10:45:32;;;;;;;28.20;18.17;;;8.90;99.90;;;;;;5071679;28;20082;-67
2021/12/29 10:47:58;;;;;;;24.98;16.65;;;8.90;99.90;;;;;;5071726;28;20130;-67
2021/12/29 10:50:26;;;;;;;28.13;18.17;;;8.90;99.90;;;;;;5071366;28;20025;-67
2021/12/29 10:52:54;;;;;;;25.50;16.95;;;8.90;99.90;;;;;;5052530;28;20028;-67
2021/12/29 10:55:35;;;;;;;27.55;18.58;;;8.90;99.90;;;;;;5085603;28;20031;-68
2021/12/29 10:58:04;;;;;;;28.17;15.93;;;8.90;99.90;;;;;;5090891;28;20078;-67
2021/12/29 11:00:30;;;;;;;28.67;15.55;;;8.90;99.90;;;;;;5091189;28;20021;-67
2021/12/29 11:03:19;;;;;;;30.10;16.05;;;8.90;99.90;;;;;;5073031;28;20446;-68
2021/12/29 11:05:48;;;;;;;27.95;14.82;;;9.00;99.90;;;;;;5073460;28;20502;-68
2021/12/29 11:08:15;;;;;;;;;;;9.00;99.90;;;;;;5073948;28;20136;-67
2021/12/29 11:10:41;;;;;;;28.90;15.48;;;9.10;99.90;;;;;;5074054;28;19904;-67
2021/12/29 11:13:09;;;;;;;30.67;16.05;;;9.10;99.90;;;;;;5072256;28;20047;-67
2021/12/29 11:15:41;;;;;;;27.00;15.32;;;9.10;99.90;;;;;;5092047;28;20016;-68
2021/12/29 11:18:12;;;;;;;29.38;15.82;;;9.20;99.90;;;;;;5092306;28;20025;-67
2021/12/29 11:20:39;;;;;;;32.78;16.00;;;9.10;99.90;;;;;;5092683;28;20020;-67
2021/12/29 11:23:14;;;;;;;30.13;15.63;;;9.10;99.90;;;;;;5092220;28;20041;-68
2021/12/29 11:25:42;;;;;;;31.08;16.08;;;9.10;99.90;;;;;;5093014;28;20031;-68
2021/12/29 11:28:21;;;;;;;29.05;14.85;;;9.10;99.90;;;;;;5092351;28;20107;-67
2021/12/29 11:30:46;;;;;;;32.03;15.90;;;9.10;99.90;;;;;;5074367;28;20028;-68
2021/12/29 11:33:13;;;;;;;30.65;15.73;;;9.20;99.90;;;;;;5076070;28;20040;-68
2021/12/29 11:35:41;;;;;;;26.98;14.23;;;9.20;99.90;;;;;;5078098;28;20020;-67
2021/12/29 11:38:08;;;;;;;29.40;15.65;;;9.20;99.90;;;;;;5077343;28;20076;-67
2021/12/29 11:40:36;;;;;;;29.60;15.65;;;9.20;99.90;;;;;;5095385;28;20494;-67
2021/12/29 11:43:02;;;;;;;30.17;16.50;;;9.20;99.90;;;;;;5093685;28;20031;-67
2021/12/29 11:45:27;;;;;;;31.85;16.25;;;9.20;99.90;;;;;;5076578;28;20035;-67
2021/12/29 11:47:54;;;;;;;28.90;15.02;;;9.30;99.90;;;;;;5095022;28;20032;-69
2021/12/29 11:50:30;;;;;;;28.90;14.93;;;9.40;99.90;;;;;;5076759;28;20414;-67
2021/12/29 11:53:20;;;;;;;33.40;16.83;;;9.40;99.90;;;;;;5076405;28;20032;-68
2021/12/29 11:55:49;;;;;;;29.02;16.08;;;9.40;99.90;;;;;;5076288;28;20507;-67
2021/12/29 11:58:19;;;;;;;31.92;16.80;;;9.30;99.90;;;;;;5076078;28;20024;-68
2021/12/29 12:01:04;;;;;;;28.05;15.18;;;9.30;99.90;;;;;;5076385;28;20020;-68
2021/12/29 12:03:40;;;;;;;28.95;16.65;;;9.30;99.90;;;;;;5075888;28;20480;-68
2021/12/29 12:06:08;;;;;;;27.00;15.52;;;9.40;99.90;;;;;;5094687;28;20028;-68
2021/12/29 12:08:34;;;;;;;;;;;9.40;99.90;;;;;;5076883;28;20112;-68
2021/12/29 12:11:01;;;;;;;33.63;16.40;;;9.40;99.90;;;;;;5076923;28;20330;-70
2021/12/29 12:13:35;;;;;;;29.60;16.33;;;9.40;99.90;;;;;;5075585;28;20047;-69
2021/12/29 12:16:10;;;;;;;34.20;16.70;;;9.40;99.90;;;;;;5077148;28;20024;-68
2021/12/29 12:18:44;;;;;;;28.73;15.75;;;9.40;99.90;;;;;;5076466;28;20022;-68
2021/12/29 12:21:20;;;;;;;29.42;16.40;;;9.40;99.90;;;;;;5083186;28;20028;-68
2021/12/29 12:23:46;;;;;;;32.35;15.70;;;9.40;99.90;;;;;;5073245;28;20032;-68
2021/12/29 12:26:12;;;;;;;31.00;17.48;;;9.40;99.90;;;;;;5073585;28;20025;-67
2021/12/29 12:28:48;;;;;;;30.23;17.30;;;9.40;99.90;;;;;;5073832;28;20080;-68
2021/12/29 12:31:26;;;;;;;35.05;18.10;;;9.50;99.90;;;;;;5074141;28;20552;-68
2021/12/29 12:33:53;;;;;;;30.87;16.37;;;9.40;99.90;;;;;;5055164;28;20035;-68
2021/12/29 12:36:19;;;;;;;30.60;16.70;;;9.50;99.90;;;;;;5073919;28;20035;-68
2021/12/29 12:38:47;;;;;;;27.98;16.50;;;9.50;99.90;;;;;;5055739;28;20016;-68
2021/12/29 12:41:18;;;;;;;30.05;17.70;;;9.50;99.90;;;;;;5055249;28;20086;-69
2021/12/29 12:46:14;;;;;;;33.22;17.15;;;9.50;99.90;;;;;;5070457;28;20044;-69
2021/12/29 12:48:40;;;;;;;32.83;18.58;;;9.50;99.90;;;;;;5073388;28;20492;-69
2021/12/29 12:51:17;;;;;;;35.38;18.20;;;9.50;99.90;;;;;;5055340;28;20020;-70
2021/12/29 12:53:43;;;;;;;30.67;17.30;;;9.50;99.90;;;;;;5054375;28;20025;-69